createdAt,value
2022-09-15T00:02:25.030Z,61.60
2022-09-15T00:04:55.842Z,61.51
2022-09-15T00:07:31.695Z,61.57
2022-09-15T00:10:10.662Z,61.64
2022-09-15T00:13:01.528Z,61.72
2022-09-15T00:15:35.880Z,61.63
2022-09-15T00:18:12.924Z,61.48
2022-09-15T00:20:47.689Z,61.14
2022-09-15T00:23:21.860Z,61.47
2022-09-15T00:25:53.564Z,61.60
2022-09-15T00:28:23.025Z,61.44
2022-09-15T00:30:57.714Z,61.26
2022-09-15T00:33:26.027Z,61.73
2022-09-15T00:35:56.968Z,61.85
2022-09-15T00:38:39.780Z,61.77
2022-09-15T00:41:38.983Z,61.78
2022-09-15T00:45:08.288Z,61.71
2022-09-15T00:47:38.952Z,61.87
2022-09-15T00:50:38.758Z,62.11
2022-09-15T00:53:16.428Z,61.95
2022-09-15T00:55:51.605Z,62.19
2022-09-15T00:58:29.797Z,62.20
2022-09-15T01:01:08.350Z,62.42
2022-09-15T01:03:40.149Z,62.43
2022-09-15T01:06:51.257Z,61.92
2022-09-15T01:09:58.722Z,62.02
2022-09-15T01:12:37.339Z,62.72
2022-09-15T01:15:06.969Z,62.25
2022-09-15T01:18:23.681Z,62.56
2022-09-15T01:21:48.152Z,63.19
2022-09-15T01:25:09.601Z,63.26
2022-09-15T01:28:22.425Z,63.40
2022-09-15T01:31:05.923Z,63.45
2022-09-15T01:34:21.916Z,64.01
2022-09-15T01:37:07.209Z,63.96
2022-09-15T01:40:08.383Z,64.02
2022-09-15T01:42:58.012Z,64.05
2022-09-15T01:45:44.847Z,63.83
2022-09-15T01:48:26.727Z,64.09
2022-09-15T01:51:08.604Z,64.22
2022-09-15T01:53:39.855Z,64.06
2022-09-15T01:56:35.269Z,63.98
2022-09-15T01:59:12.452Z,64.09
2022-09-15T02:01:57.540Z,63.97
2022-09-15T02:04:54.370Z,64.44
2022-09-15T02:08:31.453Z,64.55
2022-09-15T02:12:01.187Z,64.40
2022-09-15T02:15:09.893Z,64.05
2022-09-15T02:17:54.488Z,64.16
2022-09-15T02:21:23.550Z,64.03
2022-09-15T02:25:41.034Z,63.88
2022-09-15T02:28:18.257Z,63.99
2022-09-15T02:30:59.926Z,63.92
2022-09-15T02:33:35.693Z,63.85
2022-09-15T02:36:13.956Z,63.89
2022-09-15T02:39:37.664Z,64.07
2022-09-15T02:42:11.093Z,64.37
2022-09-15T02:45:10.304Z,64.37
2022-09-15T02:47:41.067Z,64.69
2022-09-15T02:50:56.406Z,64.61
2022-09-15T02:54:16.600Z,64.78
2022-09-15T02:57:13.543Z,64.54
2022-09-15T03:00:17.763Z,64.80
2022-09-15T03:03:07.238Z,64.78
2022-09-15T03:05:54.657Z,64.83
2022-09-15T03:09:02.257Z,64.93
2022-09-15T03:11:48.861Z,65.05
2022-09-15T03:14:20.413Z,65.18
2022-09-15T03:17:11.830Z,65.19
2022-09-15T03:19:56.695Z,65.39
2022-09-15T03:23:14.028Z,65.27
2022-09-15T03:26:46.254Z,65.27
2022-09-15T03:29:20.002Z,65.66
2022-09-15T03:31:52.994Z,65.73
2022-09-15T03:34:36.518Z,65.70
2022-09-15T03:37:07.762Z,65.80
2022-09-15T03:39:51.021Z,65.77
2022-09-15T03:42:22.028Z,65.78
2022-09-15T03:44:53.785Z,65.65
2022-09-15T03:47:44.178Z,65.97
2022-09-15T03:50:15.629Z,65.82
2022-09-15T03:52:46.941Z,65.98
2022-09-15T03:56:00.930Z,65.87
2022-09-15T03:58:42.404Z,65.75
2022-09-15T04:01:16.230Z,65.51
2022-09-15T04:03:52.928Z,65.64
2022-09-15T04:06:25.460Z,65.72
2022-09-15T04:09:02.404Z,65.73
2022-09-15T04:11:39.827Z,65.64
2022-09-15T04:14:11.073Z,65.40
2022-09-15T04:16:42.099Z,65.21
2022-09-15T04:19:21.552Z,64.93
2022-09-15T04:21:54.944Z,65.08
2022-09-15T04:24:29.878Z,64.91
2022-09-15T04:27:00.813Z,64.47
2022-09-15T04:29:29.753Z,64.44
2022-09-15T04:32:01.191Z,64.38
2022-09-15T04:34:39.281Z,64.37
2022-09-15T04:37:12.756Z,64.45
2022-09-15T04:39:44.750Z,64.84
2022-09-15T04:42:15.964Z,64.71
2022-09-15T04:44:52.163Z,65.12
2022-09-15T04:47:34.838Z,65.09
2022-09-15T04:50:12.592Z,65.04
2022-09-15T04:52:45.629Z,64.62
2022-09-15T04:55:27.212Z,64.58
2022-09-15T04:57:58.353Z,64.81
2022-09-15T05:00:29.803Z,64.73
2022-09-15T05:03:03.324Z,64.84
2022-09-15T05:05:40.586Z,65.06
2022-09-15T05:08:17.770Z,64.83
2022-09-15T05:11:02.736Z,64.76
2022-09-15T05:13:59.276Z,65.20
2022-09-15T05:16:34.266Z,64.69
2022-09-15T05:19:05.831Z,64.66
2022-09-15T05:21:34.443Z,64.80
2022-09-15T05:24:42.431Z,64.83
2022-09-15T05:27:15.844Z,64.95
2022-09-15T05:29:44.326Z,64.64
2022-09-15T05:32:12.604Z,64.43
2022-09-15T05:34:48.761Z,64.51
2022-09-15T05:37:20.211Z,64.61
2022-09-15T05:40:22.354Z,64.31
2022-09-15T05:43:03.456Z,63.77
2022-09-15T05:45:37.851Z,63.50
2022-09-15T05:48:16.801Z,63.87
2022-09-15T05:50:59.081Z,63.95
2022-09-15T05:53:31.272Z,63.90
2022-09-15T05:56:26.656Z,63.86
2022-09-15T05:59:28.993Z,64.33
2022-09-15T06:02:06.516Z,64.34
2022-09-15T06:04:42.811Z,64.21
2022-09-15T06:07:16.924Z,64.20
2022-09-15T06:09:50.936Z,64.17
2022-09-15T06:12:28.888Z,64.28
2022-09-15T06:15:05.301Z,64.28
2022-09-15T06:17:39.786Z,64.06
2022-09-15T06:20:41.544Z,64.20
2022-09-15T06:23:55.448Z,64.15
2022-09-15T06:26:51.863Z,64.13
2022-09-15T06:29:41.484Z,63.78
2022-09-15T06:32:22.519Z,63.97
2022-09-15T06:34:59.624Z,63.82
2022-09-15T06:38:11.799Z,63.64
2022-09-15T06:41:03.319Z,63.66
2022-09-15T06:43:37.850Z,63.72
2022-09-15T06:46:16.961Z,63.73
2022-09-15T06:48:56.050Z,63.65
2022-09-15T06:51:45.676Z,63.73
2022-09-15T06:55:00.340Z,63.47
2022-09-15T06:58:19.527Z,64.08
2022-09-15T07:01:29.780Z,64.32
2022-09-15T07:05:05.013Z,64.27
2022-09-15T07:08:00.489Z,64.71
2022-09-15T07:10:49.280Z,64.47
2022-09-15T07:13:31.893Z,64.25
2022-09-15T07:16:28.558Z,64.38
2022-09-15T07:19:51.489Z,63.85
2022-09-15T07:22:45.366Z,64.14
2022-09-15T07:25:34.733Z,64.80
2022-09-15T07:28:17.653Z,64.33
2022-09-15T07:31:14.034Z,63.94
2022-09-15T07:33:55.754Z,64.45
2022-09-15T07:36:36.237Z,64.84
2022-09-15T07:39:07.610Z,65.68
2022-09-15T07:41:39.343Z,65.81
2022-09-15T07:44:13.457Z,65.60
2022-09-15T07:46:47.466Z,66.24
2022-09-15T07:49:21.681Z,65.38
2022-09-15T07:51:50.262Z,65.43
2022-09-15T07:54:22.979Z,65.18
2022-09-15T07:56:56.544Z,66.71
2022-09-15T07:59:30.344Z,65.49
2022-09-15T08:02:04.160Z,65.36
2022-09-15T08:04:40.006Z,66.29
2022-09-15T08:07:17.011Z,65.62
2022-09-15T08:09:51.504Z,65.86
2022-09-15T08:12:33.399Z,65.99
2022-09-15T08:15:43.397Z,66.38
2022-09-15T08:18:22.993Z,66.80
2022-09-15T08:20:56.593Z,66.94
2022-09-15T08:23:29.522Z,66.59
2022-09-15T08:26:14.091Z,67.35
2022-09-15T08:29:03.402Z,67.67
2022-09-15T08:32:02.093Z,67.98
2022-09-15T08:34:35.588Z,68.36
2022-09-15T08:37:32.847Z,68.40
2022-09-15T08:40:23.384Z,68.31
2022-09-15T08:42:59.439Z,69.28
2022-09-15T08:45:50.201Z,70.34
2022-09-15T08:48:30.252Z,69.78
2022-09-15T08:51:18.724Z,70.08
2022-09-15T08:53:59.878Z,69.64
2022-09-15T08:56:28.353Z,69.43
2022-09-15T08:59:29.600Z,69.12
2022-09-15T09:03:11.681Z,68.96
2022-09-15T09:05:57.703Z,68.61
2022-09-15T09:09:10.519Z,68.01
2022-09-15T09:12:37.577Z,68.13
2022-09-15T09:16:05.476Z,68.53
2022-09-15T09:19:53.393Z,68.73
2022-09-15T09:22:36.105Z,68.92
2022-09-15T09:25:26.173Z,69.21
2022-09-15T09:29:10.558Z,69.11
2022-09-15T09:31:38.927Z,69.45
2022-09-15T09:35:15.157Z,70.21
2022-09-15T09:37:46.884Z,70.24
2022-09-15T09:40:32.967Z,70.00
2022-09-15T09:43:27.999Z,69.65
2022-09-15T09:46:30.256Z,69.44
2022-09-15T09:49:25.558Z,69.15
2022-09-15T09:52:45.925Z,69.39
2022-09-15T09:56:01.304Z,69.14
2022-09-15T09:59:14.021Z,68.56
2022-09-15T10:02:23.238Z,68.43
2022-09-15T10:05:45.291Z,68.04
2022-09-15T10:08:22.676Z,67.77
2022-09-15T10:11:31.101Z,67.64
2022-09-15T10:14:55.570Z,66.11
2022-09-15T10:17:41.176Z,65.13
2022-09-15T10:20:32.553Z,64.15
2022-09-15T10:23:44.883Z,63.15
2022-09-15T10:27:38.066Z,64.38
2022-09-15T10:31:19.030Z,64.29
2022-09-15T10:34:06.772Z,64.81
2022-09-15T10:37:17.466Z,64.66
2022-09-15T10:40:58.633Z,63.85
2022-09-15T10:43:53.462Z,64.54
2022-09-15T10:48:06.151Z,65.14
2022-09-15T10:51:46.616Z,65.45
2022-09-15T10:55:24.814Z,64.85
2022-09-15T10:59:44.049Z,64.51
2022-09-15T11:03:48.023Z,64.63
2022-09-15T11:07:59.115Z,64.09
2022-09-15T11:11:04.556Z,63.76
2022-09-15T11:14:27.614Z,64.06
2022-09-15T11:17:50.472Z,64.56
2022-09-15T11:21:01.955Z,64.99
2022-09-15T11:24:21.023Z,64.70
2022-09-15T11:27:57.915Z,64.28
2022-09-15T11:30:47.898Z,63.81
2022-09-15T11:33:51.703Z,63.88
2022-09-15T11:37:39.950Z,64.24
2022-09-15T11:40:53.894Z,64.19
2022-09-15T11:44:14.701Z,65.40
2022-09-15T11:47:10.017Z,66.38
2022-09-15T11:50:38.803Z,66.26
2022-09-15T11:54:25.109Z,65.62
2022-09-15T11:57:44.176Z,65.85
2022-09-15T12:00:34.364Z,67.30
2022-09-15T12:03:52.977Z,66.26
2022-09-15T12:07:33.080Z,65.19
2022-09-15T12:10:45.197Z,64.61
2022-09-15T12:13:18.475Z,64.06
2022-09-15T12:15:57.490Z,63.59
2022-09-15T12:18:53.017Z,63.40
2022-09-15T12:21:56.645Z,62.72
2022-09-15T12:25:01.422Z,62.93
2022-09-15T12:28:47.080Z,62.93
2022-09-15T12:31:35.228Z,62.74
2022-09-15T12:34:48.103Z,62.41
2022-09-15T12:38:23.196Z,61.86
2022-09-15T12:41:17.939Z,61.66
2022-09-15T12:44:21.206Z,61.51
2022-09-15T12:47:20.686Z,61.27
2022-09-15T12:50:17.691Z,61.53
2022-09-15T12:53:46.421Z,61.24
2022-09-15T12:56:49.884Z,60.87
2022-09-15T12:59:40.993Z,60.67
2022-09-15T13:03:02.503Z,60.53
2022-09-15T13:06:50.153Z,60.01
2022-09-15T13:10:03.574Z,56.63
2022-09-15T13:13:15.536Z,58.72
2022-09-15T13:16:47.879Z,59.76
2022-09-15T13:20:06.376Z,60.08
2022-09-15T13:22:58.549Z,64.27
2022-09-15T13:25:33.802Z,62.96
2022-09-15T13:28:12.997Z,61.40
2022-09-15T13:31:52.311Z,59.55
2022-09-15T13:35:23.102Z,59.92
2022-09-15T13:39:31.015Z,60.27
2022-09-15T13:42:27.873Z,63.39
2022-09-15T13:46:01.836Z,62.68
2022-09-15T13:48:59.656Z,61.45
2022-09-15T13:52:48.300Z,60.41
2022-09-15T13:56:06.505Z,59.42
2022-09-15T13:59:42.408Z,57.77
2022-09-15T14:02:16.383Z,59.50
2022-09-15T14:04:52.576Z,60.78
2022-09-15T14:07:32.730Z,61.95
2022-09-15T14:10:08.524Z,65.92
2022-09-15T14:12:42.417Z,65.63
2022-09-15T14:16:15.061Z,63.18
2022-09-15T14:19:41.207Z,61.01
2022-09-15T14:22:59.776Z,60.20
2022-09-15T14:25:48.721Z,58.54
2022-09-15T14:28:33.694Z,60.14
2022-09-15T14:31:53.104Z,60.61
2022-09-15T14:34:56.356Z,63.64
2022-09-15T14:38:24.333Z,64.26
2022-09-15T14:41:31.932Z,62.16
2022-09-15T14:45:55.258Z,60.86
2022-09-15T14:49:11.297Z,60.17
2022-09-15T14:52:19.302Z,58.36
2022-09-15T14:56:08.337Z,58.65
2022-09-15T15:00:18.085Z,60.58
2022-09-15T15:04:25.933Z,66.04
2022-09-15T15:07:56.885Z,65.13
2022-09-15T15:11:29.597Z,63.57
2022-09-15T15:14:18.384Z,62.73
2022-09-15T15:17:15.991Z,62.29
2022-09-15T15:21:07.349Z,61.67
2022-09-15T15:24:53.342Z,61.81
2022-09-15T15:28:25.169Z,61.52
2022-09-15T15:31:17.164Z,62.09
2022-09-15T15:34:26.906Z,62.13
2022-09-15T15:37:34.124Z,61.80
2022-09-15T15:40:38.353Z,62.42
2022-09-15T15:43:24.548Z,62.31
2022-09-15T15:46:04.445Z,62.93
2022-09-15T15:49:18.446Z,61.87
2022-09-15T15:52:06.311Z,62.50
2022-09-15T15:54:37.113Z,62.07
2022-09-15T15:57:31.092Z,62.30
2022-09-15T16:00:26.325Z,62.11
2022-09-15T16:02:57.760Z,61.87
2022-09-15T16:05:31.353Z,62.17
2022-09-15T16:08:06.039Z,62.54
2022-09-15T16:10:49.614Z,62.40
2022-09-15T16:13:24.934Z,62.40
2022-09-15T16:16:03.449Z,62.34
2022-09-15T16:18:34.847Z,62.39
2022-09-15T16:21:09.335Z,62.11
2022-09-15T16:24:09.828Z,61.97
2022-09-15T16:26:43.767Z,61.99
2022-09-15T16:29:26.141Z,61.96
2022-09-15T16:31:57.561Z,61.73
2022-09-15T16:34:28.395Z,61.75
2022-09-15T16:36:57.359Z,61.72
2022-09-15T16:39:37.201Z,61.91
2022-09-15T16:42:42.443Z,61.58
2022-09-15T16:45:53.936Z,62.19
2022-09-15T16:48:47.400Z,62.26
2022-09-15T16:51:31.442Z,62.41
2022-09-15T16:55:20.921Z,61.82
2022-09-15T16:57:55.652Z,62.28
2022-09-15T17:00:31.445Z,62.56
2022-09-15T17:03:08.937Z,62.71
2022-09-15T17:05:49.875Z,62.50
2022-09-15T17:08:33.707Z,62.74
2022-09-15T17:11:47.407Z,62.75
2022-09-15T17:14:21.965Z,62.59
2022-09-15T17:17:36.818Z,62.71
2022-09-15T17:20:09.232Z,62.56
2022-09-15T17:23:08.877Z,63.07
2022-09-15T17:25:49.175Z,63.32
2022-09-15T17:29:33.669Z,63.11
2022-09-15T17:32:20.957Z,63.16
2022-09-15T17:35:24.457Z,63.15
2022-09-15T17:38:58.816Z,63.24
2022-09-15T17:41:43.078Z,63.10
2022-09-15T17:44:46.578Z,63.16
2022-09-15T17:47:26.583Z,63.49
2022-09-15T17:50:00.860Z,63.45
2022-09-15T17:52:40.476Z,63.43
2022-09-15T17:55:44.043Z,63.55
2022-09-15T17:58:31.984Z,63.41
2022-09-15T18:01:24.165Z,63.10
2022-09-15T18:03:58.125Z,63.14
2022-09-15T18:06:35.955Z,62.88
2022-09-15T18:09:14.955Z,63.36
2022-09-15T18:12:04.483Z,63.68
2022-09-15T18:14:53.709Z,63.43
2022-09-15T18:17:28.826Z,63.62
2022-09-15T18:20:04.085Z,63.72
2022-09-15T18:22:44.219Z,63.69
2022-09-15T18:25:47.346Z,63.58
2022-09-15T18:28:35.453Z,63.89
2022-09-15T18:31:30.214Z,64.26
2022-09-15T18:34:05.282Z,64.86
2022-09-15T18:36:54.551Z,65.54
2022-09-15T18:39:30.878Z,65.42
2022-09-15T18:42:49.982Z,65.14
2022-09-15T18:45:49.870Z,64.51
2022-09-15T18:48:51.595Z,64.18
2022-09-15T18:52:16.560Z,65.51
2022-09-15T18:55:03.370Z,65.25
2022-09-15T18:58:22.747Z,64.41
2022-09-15T19:02:02.227Z,66.27
2022-09-15T19:04:37.240Z,65.69
2022-09-15T19:08:34.792Z,65.66
2022-09-15T19:11:52.574Z,65.23
2022-09-15T19:15:49.144Z,66.95
2022-09-15T19:18:46.588Z,67.56
2022-09-15T19:21:44.806Z,67.44
2022-09-15T19:24:47.532Z,67.58
2022-09-15T19:27:49.440Z,66.97
2022-09-15T19:30:36.193Z,67.05
2022-09-15T19:33:13.592Z,65.90
2022-09-15T19:35:45.857Z,66.43
2022-09-15T19:38:23.619Z,65.99
2022-09-15T19:41:11.610Z,66.07
2022-09-15T19:43:45.365Z,66.45
2022-09-15T19:46:21.680Z,66.70
2022-09-15T19:48:53.621Z,67.31
2022-09-15T19:51:22.284Z,68.30
2022-09-15T19:53:55.781Z,67.99
2022-09-15T19:56:28.533Z,67.80
2022-09-15T19:58:57.951Z,68.48
2022-09-15T20:01:34.257Z,68.88
2022-09-15T20:04:08.484Z,68.57
2022-09-15T20:06:42.948Z,67.91
2022-09-15T20:09:19.519Z,67.35
2022-09-15T20:11:56.910Z,67.02
2022-09-15T20:14:31.779Z,66.57
2022-09-15T20:17:03.317Z,66.18
2022-09-15T20:19:34.839Z,65.96
2022-09-15T20:22:34.552Z,65.83
2022-09-15T20:25:06.105Z,65.90
2022-09-15T20:27:43.396Z,66.05
2022-09-15T20:30:22.316Z,65.97
2022-09-15T20:32:56.122Z,65.94
2022-09-15T20:35:29.928Z,65.47
2022-09-15T20:38:12.128Z,64.59
2022-09-15T20:40:59.248Z,65.62
2022-09-15T20:43:41.715Z,65.94
2022-09-15T20:46:17.505Z,66.16
2022-09-15T20:48:46.804Z,65.41
2022-09-15T20:51:39.451Z,65.92
2022-09-15T20:54:25.865Z,65.68
2022-09-15T20:56:54.947Z,65.98
2022-09-15T20:59:23.604Z,65.73
2022-09-15T21:01:59.518Z,65.61
2022-09-15T21:04:30.957Z,65.78
2022-09-15T21:07:27.866Z,65.83
2022-09-15T21:09:58.921Z,65.29
2022-09-15T21:12:32.418Z,65.50
2022-09-15T21:15:05.773Z,66.09
2022-09-15T21:17:39.824Z,66.41
2022-09-15T21:20:08.686Z,66.47
2022-09-15T21:22:42.830Z,67.01
2022-09-15T21:25:17.042Z,66.92
2022-09-15T21:27:46.442Z,66.04
2022-09-15T21:30:17.938Z,66.35
2022-09-15T21:32:54.993Z,66.90
2022-09-15T21:35:47.629Z,66.68
2022-09-15T21:38:19.481Z,66.31
2022-09-15T21:40:50.931Z,66.10
2022-09-15T21:43:25.215Z,65.57
2022-09-15T21:46:07.100Z,66.06
2022-09-15T21:48:40.969Z,66.55
2022-09-15T21:51:16.837Z,66.61
2022-09-15T21:53:58.728Z,66.48
2022-09-15T21:56:53.594Z,66.61
2022-09-15T21:59:31.730Z,66.45
2022-09-15T22:02:49.947Z,66.51
2022-09-15T22:05:32.151Z,67.05
2022-09-15T22:08:05.106Z,66.11
2022-09-15T22:10:34.229Z,65.99
2022-09-15T22:13:26.031Z,66.20
2022-09-15T22:16:23.525Z,66.77
2022-09-15T22:18:55.580Z,66.50
2022-09-15T22:21:44.031Z,65.80
2022-09-15T22:24:45.278Z,66.30
2022-09-15T22:27:35.729Z,67.09
2022-09-15T22:30:31.798Z,67.38
2022-09-15T22:33:08.983Z,68.16
2022-09-15T22:35:44.630Z,68.48
2022-09-15T22:38:58.579Z,68.79
2022-09-15T22:41:50.305Z,69.02
2022-09-15T22:44:29.944Z,68.01
2022-09-15T22:47:40.926Z,67.71
2022-09-15T22:50:57.819Z,68.58
2022-09-15T22:53:47.130Z,67.84
2022-09-15T22:56:27.829Z,67.24
2022-09-15T22:59:04.952Z,67.02
2022-09-15T23:01:39.808Z,66.90
2022-09-15T23:04:11.640Z,66.66
2022-09-15T23:07:03.265Z,67.29
2022-09-15T23:09:39.680Z,67.28
2022-09-15T23:12:29.304Z,66.65
2022-09-15T23:15:06.799Z,66.04
2022-09-15T23:17:50.754Z,65.44
2022-09-15T23:20:29.050Z,65.16
2022-09-15T23:23:09.615Z,65.07
2022-09-15T23:26:00.731Z,65.32
2022-09-15T23:29:03.202Z,65.24
2022-09-15T23:31:57.529Z,65.74
2022-09-15T23:34:53.922Z,66.19
2022-09-15T23:37:30.390Z,65.70
2022-09-15T23:40:45.178Z,65.41
2022-09-15T23:43:30.645Z,65.31
2022-09-15T23:46:04.643Z,65.75
2022-09-15T23:48:46.931Z,65.52
2022-09-15T23:51:28.943Z,65.39
2022-09-15T23:54:04.752Z,65.14
2022-09-15T23:56:36.352Z,64.73
2022-09-15T23:59:12.046Z,64.60
